Accueil
METAR-TAF:

METAR-TAF

Aéroports :

Le Helder, Pays-Bas

latitude: 52-55N, longitude: 004-47E, altitude: 0 m

Observation

Le bulletin a été fait il y a 15 minutes, à 13:25 UTC
Vent 13 kt de sud-ouest, variant entre sud et ouest
Température 20°C
Humidité 64%
Pression 1024 hPa
Visibilité 10 km ou plus
pas de nuages en-dessous de 1500 mètres et pas de cumulonimbus.

METAR: EHKD 221325Z AUTO 23014KT 180V270 9999 FEW330 20/13 Q1024 BLU 23013KT CAVOK

Heure: 15:40 (13:40 UTC)

Prévision

Le bulletin a été fait il y a 44 minutes, à 12:56 UTC
Prévision valable du 22 à 13 UTC au 23 à 01 UTC
Vent 13 kt de sud-ouest
Visibilité 10 km ou plus
pas de nuages en-dessous de 1500 mètres et pas de cumulonimbus.
Evoluant progressivement
du 22 à 17 UTC au 22 à 20 UTC
Vent 6 kt de sud/sud-ouest

TAF: EHKD 221256Z 2213/2301 23013KT CAVOK BECMG 2217/2220 20006KT

Observations et prévisions météorologiques de plus de 4000 aéroports (messages METAR et TAF).

Les stations disponibles sont représentées par des disques jaunes et rouges sur la carte.

Passer la souris dessus pour voir le nom de la station.

Cliquer dessus pour voir les observations et prévisions météorologiques.

Pour changer de carte: cliquez sur les boutons verts avec une croix noire pour zoomer, sur le bouton vert avec un tiret pour effectuer un zoom arrière, ou sur les flèches vertes pour les cartes adjacentes.


METAR-TAF: